BAW528 EGLL-LIRN
Flight info
| Callsign | BAW528 |
|---|---|
| Flight time | 2h 12m |
| Altitude | 35000 |
| Route | MODMI1J MODMI M185 MID L612 BOGNA UL612 OGULO/N0444F370 DCT OKASI DCT OKEKO DCT MOU DCT MADIV DCT MOKIP DCT TUFTA DCT KOGAS DCT MEDAM DCT NITAM DCT MOGBO DCT TIBER DCT PEMAR/N0431F340 DCT EVULI/N0434F330 DCT ERIKA ERIKA1A |
| Aircraft | A320/M-SDE3FGIJ1KRWXY/SB1 |
Departure
| Time | 2026-05-07 14:39 |
|---|---|
| Airport | London Heathrow Airport (EGLL) |
Arrival
| Time | 2026-05-07 16:52 |
|---|---|
| Airport | Naples International Airport (LIRN) |
| Time | Latitude | Longitude | Altitude | Speed | Heading |
|---|---|---|---|---|---|
| 2026-05-07 13:23 | 51.46939 | -0.47180 | 88 ft | 0 kts | 89° |
| 2026-05-07 14:24 | 51.46939 | -0.47207 | 89 ft | 4 kts | 89° |
| 2026-05-07 14:24 | 51.46939 | -0.47250 | 86 ft | 4 kts | 89° |
| 2026-05-07 14:24 | 51.46938 | -0.47287 | 86 ft | 2 kts | 90° |
| 2026-05-07 14:24 | 51.46942 | -0.47326 | 86 ft | 4 kts | 121° |
| 2026-05-07 14:25 | 51.46959 | -0.47350 | 88 ft | 4 kts | 175° |
| 2026-05-07 14:25 | 51.46982 | -0.47351 | 86 ft | 1 kts | 179° |
| 2026-05-07 14:27 | 51.46975 | -0.47351 | 87 ft | 2 kts | 180° |
| 2026-05-07 14:28 | 51.46958 | -0.47351 | 88 ft | 3 kts | 180° |
| 2026-05-07 14:28 | 51.46933 | -0.47351 | 90 ft | 5 kts | 180° |
| 2026-05-07 14:28 | 51.46891 | -0.47350 | 86 ft | 7 kts | 180° |
| 2026-05-07 14:28 | 51.46835 | -0.47350 | 86 ft | 9 kts | 180° |
| 2026-05-07 14:29 | 51.46771 | -0.47354 | 86 ft | 9 kts | 193° |
| 2026-05-07 14:29 | 51.46746 | -0.47440 | 88 ft | 9 kts | 267° |
| 2026-05-07 14:29 | 51.46745 | -0.47545 | 86 ft | 10 kts | 269° |
| 2026-05-07 14:29 | 51.46745 | -0.47653 | 86 ft | 10 kts | 269° |
| 2026-05-07 14:30 | 51.46744 | -0.47762 | 86 ft | 10 kts | 270° |
| 2026-05-07 14:30 | 51.46744 | -0.47874 | 86 ft | 10 kts | 270° |
| 2026-05-07 14:30 | 51.46744 | -0.47988 | 86 ft | 11 kts | 270° |
| 2026-05-07 14:30 | 51.46744 | -0.48109 | 86 ft | 11 kts | 270° |
| 2026-05-07 14:31 | 51.46743 | -0.48227 | 86 ft | 11 kts | 269° |
| 2026-05-07 14:31 | 51.46742 | -0.48350 | 86 ft | 12 kts | 270° |
| 2026-05-07 14:31 | 51.46742 | -0.48479 | 86 ft | 9 kts | 270° |
| 2026-05-07 14:31 | 51.46742 | -0.48586 | 86 ft | 9 kts | 270° |
| 2026-05-07 14:32 | 51.46742 | -0.48677 | 86 ft | 8 kts | 269° |
| 2026-05-07 14:32 | 51.46721 | -0.48741 | 91 ft | 5 kts | 213° |
| 2026-05-07 14:32 | 51.46686 | -0.48749 | 86 ft | 5 kts | 178° |
| 2026-05-07 14:32 | 51.46663 | -0.48748 | 87 ft | 3 kts | 179° |
| 2026-05-07 14:33 | 51.46654 | -0.48748 | 86 ft | 0 kts | 179° |
| 2026-05-07 14:33 | 51.46653 | -0.48748 | 86 ft | 1 kts | 179° |
| 2026-05-07 14:33 | 51.46641 | -0.48748 | 86 ft | 3 kts | 182° |
| 2026-05-07 14:33 | 51.46616 | -0.48759 | 87 ft | 5 kts | 198° |
| 2026-05-07 14:34 | 51.46598 | -0.48768 | 89 ft | 0 kts | 198° |
| 2026-05-07 14:35 | 51.46597 | -0.48769 | 89 ft | 1 kts | 198° |
| 2026-05-07 14:36 | 51.46585 | -0.48776 | 88 ft | 3 kts | 198° |
| 2026-05-07 14:36 | 51.46553 | -0.48787 | 88 ft | 6 kts | 187° |
| 2026-05-07 14:36 | 51.46510 | -0.48774 | 89 ft | 7 kts | 154° |
| 2026-05-07 14:36 | 51.46480 | -0.48717 | 86 ft | 5 kts | 116° |
| 2026-05-07 14:37 | 51.46478 | -0.48696 | 87 ft | 0 kts | 90° |
| 2026-05-07 14:38 | 51.46478 | -0.48681 | 89 ft | 6 kts | 90° |
| 2026-05-07 14:39 | 51.46479 | -0.48299 | 88 ft | 68 kts | 90° |
| 2026-05-07 14:39 | 51.46483 | -0.47220 | 87 ft | 123 kts | 90° |
| 2026-05-07 14:39 | 51.46489 | -0.45614 | 124 ft | 161 kts | 89° |
| 2026-05-07 14:39 | 51.46507 | -0.43848 | 711 ft | 158 kts | 89° |
| 2026-05-07 14:40 | 51.46504 | -0.42086 | 1298 ft | 161 kts | 100° |
| 2026-05-07 14:40 | 51.46014 | -0.40399 | 1564 ft | 179 kts | 127° |
| 2026-05-07 14:40 | 51.45224 | -0.38688 | 1830 ft | 201 kts | 133° |
| 2026-05-07 14:40 | 51.43979 | -0.37468 | 2095 ft | 224 kts | 162° |
| 2026-05-07 14:41 | 51.42424 | -0.36630 | 2519 ft | 248 kts | 162° |
| 2026-05-07 14:41 | 51.40728 | -0.35875 | 3224 ft | 256 kts | 176° |
| 2026-05-07 14:41 | 51.38973 | -0.36277 | 4076 ft | 259 kts | 204° |
| 2026-05-07 14:41 | 51.37349 | -0.37558 | 4982 ft | 261 kts | 207° |
| 2026-05-07 14:42 | 51.35714 | -0.38860 | 5868 ft | 264 kts | 207° |
| 2026-05-07 14:42 | 51.34052 | -0.40169 | 6726 ft | 268 kts | 206° |
| 2026-05-07 14:42 | 51.32369 | -0.41490 | 7574 ft | 272 kts | 206° |
| 2026-05-07 14:42 | 51.30667 | -0.42827 | 8422 ft | 273 kts | 206° |
| 2026-05-07 14:43 | 51.28955 | -0.44170 | 9264 ft | 276 kts | 205° |
| 2026-05-07 14:43 | 51.27221 | -0.45526 | 10061 ft | 279 kts | 205° |
| 2026-05-07 14:43 | 51.25390 | -0.46739 | 10483 ft | 296 kts | 195° |
| 2026-05-07 14:43 | 51.23280 | -0.47222 | 10646 ft | 318 kts | 180° |
| 2026-05-07 14:44 | 51.21031 | -0.46839 | 11056 ft | 331 kts | 167° |
| 2026-05-07 14:44 | 51.18830 | -0.45655 | 11680 ft | 337 kts | 158° |
| 2026-05-07 14:44 | 51.16646 | -0.44236 | 12347 ft | 340 kts | 159° |
| 2026-05-07 14:44 | 51.14442 | -0.42823 | 13026 ft | 344 kts | 159° |
| 2026-05-07 14:45 | 51.12206 | -0.41399 | 13717 ft | 347 kts | 159° |
| 2026-05-07 14:45 | 51.09950 | -0.39965 | 14325 ft | 351 kts | 159° |
| 2026-05-07 14:45 | 51.07672 | -0.38514 | 14896 ft | 354 kts | 159° |
| 2026-05-07 14:45 | 51.05368 | -0.37040 | 15458 ft | 358 kts | 159° |
| 2026-05-07 14:46 | 51.03077 | -0.35575 | 16007 ft | 362 kts | 159° |
| 2026-05-07 14:46 | 51.00699 | -0.34056 | 16568 ft | 365 kts | 160° |
| 2026-05-07 14:46 | 50.98330 | -0.32545 | 17135 ft | 369 kts | 160° |
| 2026-05-07 14:46 | 50.95936 | -0.31016 | 17710 ft | 373 kts | 160° |
| 2026-05-07 14:47 | 50.93518 | -0.29472 | 18295 ft | 377 kts | 160° |
| 2026-05-07 14:47 | 50.91076 | -0.27914 | 18802 ft | 380 kts | 160° |
| 2026-05-07 14:47 | 50.88637 | -0.26366 | 19331 ft | 384 kts | 160° |
| 2026-05-07 14:47 | 50.86142 | -0.24787 | 19858 ft | 387 kts | 160° |
| 2026-05-07 14:48 | 50.83628 | -0.23194 | 20401 ft | 390 kts | 160° |
| 2026-05-07 14:48 | 50.81096 | -0.21589 | 20938 ft | 393 kts | 160° |
| 2026-05-07 14:48 | 50.78549 | -0.19974 | 21449 ft | 396 kts | 160° |
| 2026-05-07 14:48 | 50.75978 | -0.18346 | 21953 ft | 399 kts | 160° |
| 2026-05-07 14:49 | 50.73389 | -0.16706 | 22442 ft | 402 kts | 160° |
| 2026-05-07 14:49 | 50.70783 | -0.15058 | 22929 ft | 405 kts | 160° |
| 2026-05-07 14:49 | 50.68153 | -0.13399 | 23394 ft | 408 kts | 160° |
| 2026-05-07 14:49 | 50.65506 | -0.11737 | 23822 ft | 411 kts | 160° |
| 2026-05-07 14:50 | 50.62840 | -0.10067 | 24208 ft | 413 kts | 160° |
| 2026-05-07 14:50 | 50.60167 | -0.08390 | 24604 ft | 415 kts | 160° |
| 2026-05-07 14:50 | 50.57475 | -0.06699 | 24983 ft | 417 kts | 160° |
| 2026-05-07 14:50 | 50.54771 | -0.05001 | 25353 ft | 419 kts | 160° |
| 2026-05-07 14:51 | 50.52055 | -0.03300 | 25707 ft | 422 kts | 161° |
| 2026-05-07 14:51 | 50.49310 | -0.01589 | 26067 ft | 424 kts | 161° |
| 2026-05-07 14:51 | 50.46557 | 0.00129 | 26402 ft | 427 kts | 159° |
| 2026-05-07 14:51 | 50.43905 | 0.02275 | 26719 ft | 433 kts | 150° |
| 2026-05-07 14:52 | 50.41408 | 0.04851 | 27042 ft | 436 kts | 149° |
| 2026-05-07 14:52 | 50.38877 | 0.07478 | 27408 ft | 437 kts | 149° |
| 2026-05-07 14:52 | 50.36330 | 0.10119 | 27762 ft | 439 kts | 149° |
| 2026-05-07 14:52 | 50.33776 | 0.12763 | 28097 ft | 441 kts | 149° |
| 2026-05-07 14:53 | 50.31198 | 0.15423 | 28439 ft | 444 kts | 149° |
| 2026-05-07 14:53 | 50.28616 | 0.18083 | 28763 ft | 446 kts | 149° |
| 2026-05-07 14:53 | 50.26011 | 0.20761 | 29106 ft | 447 kts | 149° |
| 2026-05-07 14:53 | 50.23413 | 0.23426 | 29571 ft | 446 kts | 149° |
| 2026-05-07 14:54 | 50.20822 | 0.26085 | 30043 ft | 445 kts | 149° |
| 2026-05-07 14:54 | 50.18239 | 0.28737 | 30451 ft | 444 kts | 149° |
| 2026-05-07 14:54 | 50.15662 | 0.31391 | 30897 ft | 442 kts | 149° |
| 2026-05-07 14:54 | 50.13095 | 0.34034 | 31320 ft | 441 kts | 149° |
| 2026-05-07 14:55 | 50.10538 | 0.36663 | 31744 ft | 440 kts | 149° |
| 2026-05-07 14:55 | 50.07987 | 0.39279 | 32166 ft | 439 kts | 149° |
| 2026-05-07 14:55 | 50.05439 | 0.41885 | 32580 ft | 438 kts | 149° |
| 2026-05-07 14:55 | 50.02896 | 0.44480 | 32998 ft | 437 kts | 149° |
| 2026-05-07 14:56 | 50.00357 | 0.47064 | 33405 ft | 436 kts | 149° |
| 2026-05-07 14:56 | 49.97821 | 0.49647 | 33805 ft | 436 kts | 149° |
| 2026-05-07 14:56 | 49.95290 | 0.52226 | 34177 ft | 435 kts | 149° |
| 2026-05-07 14:56 | 49.92762 | 0.54799 | 34512 ft | 434 kts | 149° |
| 2026-05-07 14:57 | 49.90237 | 0.57360 | 34811 ft | 433 kts | 149° |
| 2026-05-07 14:57 | 49.87709 | 0.59922 | 35011 ft | 434 kts | 149° |
| 2026-05-07 14:57 | 49.82805 | 0.65590 | 35062 ft | 446 kts | 143° |
| 2026-05-07 14:58 | 49.78012 | 0.71639 | 35057 ft | 448 kts | 143° |
| 2026-05-07 14:58 | 49.73167 | 0.77725 | 35051 ft | 448 kts | 143° |
| 2026-05-07 14:59 | 49.68324 | 0.83791 | 35056 ft | 448 kts | 143° |
| 2026-05-07 14:59 | 49.63463 | 0.89852 | 35056 ft | 448 kts | 143° |
| 2026-05-07 15:00 | 49.58611 | 0.95902 | 35054 ft | 449 kts | 143° |
| 2026-05-07 15:00 | 49.53746 | 1.01959 | 35061 ft | 449 kts | 143° |
| 2026-05-07 15:01 | 49.48879 | 1.08006 | 35061 ft | 450 kts | 143° |
| 2026-05-07 15:01 | 49.43999 | 1.14045 | 35068 ft | 450 kts | 144° |
| 2026-05-07 15:02 | 49.39111 | 1.20052 | 35072 ft | 450 kts | 144° |
| 2026-05-07 15:02 | 49.34225 | 1.26055 | 35071 ft | 450 kts | 144° |
| 2026-05-07 15:03 | 49.29338 | 1.32053 | 35062 ft | 450 kts | 144° |
| 2026-05-07 15:03 | 49.24480 | 1.38002 | 35054 ft | 450 kts | 144° |
| 2026-05-07 15:04 | 49.19583 | 1.43973 | 35059 ft | 450 kts | 144° |
| 2026-05-07 15:04 | 49.14683 | 1.49939 | 35061 ft | 450 kts | 144° |
| 2026-05-07 15:05 | 49.09779 | 1.55897 | 35064 ft | 451 kts | 144° |
| 2026-05-07 15:05 | 49.04861 | 1.61855 | 35053 ft | 451 kts | 144° |
| 2026-05-07 15:06 | 48.99942 | 1.67794 | 35059 ft | 451 kts | 144° |
| 2026-05-07 15:06 | 48.95024 | 1.73720 | 35057 ft | 450 kts | 144° |
| 2026-05-07 15:07 | 48.90108 | 1.79629 | 35052 ft | 450 kts | 144° |
| 2026-05-07 15:07 | 48.85218 | 1.85494 | 35049 ft | 451 kts | 144° |
| 2026-05-07 15:08 | 48.80293 | 1.91394 | 35034 ft | 451 kts | 144° |
| 2026-05-07 15:08 | 48.75363 | 1.97276 | 35034 ft | 451 kts | 144° |
| 2026-05-07 15:09 | 48.70421 | 2.03140 | 35035 ft | 451 kts | 144° |
| 2026-05-07 15:09 | 48.65477 | 2.08993 | 35038 ft | 451 kts | 144° |
| 2026-05-07 15:10 | 48.60532 | 2.14853 | 35038 ft | 451 kts | 144° |
| 2026-05-07 15:10 | 48.55707 | 2.20938 | 35053 ft | 454 kts | 137° |
| 2026-05-07 15:11 | 48.51261 | 2.27727 | 35045 ft | 454 kts | 137° |
| 2026-05-07 15:11 | 48.46803 | 2.34483 | 35047 ft | 455 kts | 137° |
| 2026-05-07 15:12 | 48.42327 | 2.41240 | 35055 ft | 455 kts | 137° |
| 2026-05-07 15:12 | 48.37852 | 2.47975 | 35050 ft | 455 kts | 137° |
| 2026-05-07 15:13 | 48.33375 | 2.54699 | 35050 ft | 455 kts | 137° |
| 2026-05-07 15:13 | 48.28784 | 2.61235 | 35043 ft | 452 kts | 146° |
| 2026-05-07 15:14 | 48.23370 | 2.65860 | 35043 ft | 447 kts | 159° |
| 2026-05-07 15:14 | 48.17793 | 2.69908 | 35030 ft | 449 kts | 155° |
| 2026-05-07 15:15 | 48.12309 | 2.74405 | 35037 ft | 450 kts | 154° |
| 2026-05-07 15:15 | 48.06780 | 2.78770 | 35042 ft | 448 kts | 159° |
| 2026-05-07 15:16 | 48.01059 | 2.82456 | 35044 ft | 448 kts | 160° |
| 2026-05-07 15:16 | 47.95317 | 2.86072 | 35036 ft | 448 kts | 160° |
| 2026-05-07 15:17 | 47.89576 | 2.89688 | 35043 ft | 448 kts | 160° |
| 2026-05-07 15:17 | 47.84808 | 2.92700 | 35043 ft | 448 kts | 160° |
| 2026-05-07 15:18 | 47.79070 | 2.96326 | 35038 ft | 448 kts | 160° |
| 2026-05-07 15:18 | 47.73323 | 2.99964 | 35032 ft | 449 kts | 160° |
| 2026-05-07 15:19 | 47.67578 | 3.03581 | 35041 ft | 449 kts | 160° |
| 2026-05-07 15:19 | 47.61818 | 3.07183 | 35045 ft | 449 kts | 160° |
| 2026-05-07 15:20 | 47.56064 | 3.10776 | 35051 ft | 449 kts | 160° |
| 2026-05-07 15:20 | 47.50307 | 3.14365 | 35042 ft | 449 kts | 160° |
| 2026-05-07 15:21 | 47.44544 | 3.17949 | 35036 ft | 449 kts | 160° |
| 2026-05-07 15:21 | 47.38790 | 3.21516 | 35040 ft | 449 kts | 161° |
| 2026-05-07 15:22 | 47.33194 | 3.25608 | 35022 ft | 454 kts | 144° |
| 2026-05-07 15:22 | 47.30958 | 3.28922 | 35014 ft | 460 kts | 131° |
| 2026-05-07 15:22 | 47.29003 | 3.32679 | 35070 ft | 463 kts | 130° |
| 2026-05-07 15:23 | 47.27058 | 3.36456 | 35352 ft | 463 kts | 130° |
| 2026-05-07 15:23 | 47.25118 | 3.40238 | 35638 ft | 463 kts | 130° |
| 2026-05-07 15:23 | 47.23172 | 3.44027 | 35917 ft | 463 kts | 130° |
| 2026-05-07 15:23 | 47.21228 | 3.47797 | 36196 ft | 463 kts | 130° |
| 2026-05-07 15:24 | 47.19279 | 3.51567 | 36469 ft | 462 kts | 130° |
| 2026-05-07 15:24 | 47.17325 | 3.55336 | 36731 ft | 462 kts | 130° |
| 2026-05-07 15:24 | 47.15398 | 3.59035 | 36961 ft | 462 kts | 130° |
| 2026-05-07 15:24 | 47.13416 | 3.62828 | 37022 ft | 463 kts | 130° |
| 2026-05-07 15:25 | 47.09527 | 3.70273 | 37023 ft | 462 kts | 130° |
| 2026-05-07 15:25 | 47.05613 | 3.77762 | 37018 ft | 463 kts | 130° |
| 2026-05-07 15:26 | 47.01686 | 3.85249 | 37016 ft | 463 kts | 131° |
| 2026-05-07 15:26 | 46.97758 | 3.92712 | 37014 ft | 463 kts | 131° |
| 2026-05-07 15:27 | 46.93789 | 4.00139 | 37020 ft | 463 kts | 131° |
| 2026-05-07 15:27 | 46.89780 | 4.07506 | 37022 ft | 463 kts | 132° |
| 2026-05-07 15:28 | 46.85756 | 4.14858 | 37003 ft | 464 kts | 132° |
| 2026-05-07 15:28 | 46.81730 | 4.22246 | 37013 ft | 465 kts | 132° |
| 2026-05-07 15:29 | 46.77705 | 4.29629 | 37021 ft | 465 kts | 132° |
| 2026-05-07 15:29 | 46.73697 | 4.36963 | 37026 ft | 465 kts | 132° |
| 2026-05-07 15:30 | 46.69652 | 4.44315 | 37021 ft | 464 kts | 132° |
| 2026-05-07 15:30 | 46.65600 | 4.51656 | 37021 ft | 465 kts | 132° |
| 2026-05-07 15:31 | 46.61549 | 4.58982 | 37024 ft | 465 kts | 132° |
| 2026-05-07 15:31 | 46.57490 | 4.66310 | 37022 ft | 465 kts | 132° |
| 2026-05-07 15:32 | 46.53436 | 4.73620 | 37018 ft | 465 kts | 132° |
| 2026-05-07 15:32 | 46.49357 | 4.80939 | 37023 ft | 466 kts | 132° |
| 2026-05-07 15:33 | 46.45281 | 4.88245 | 37001 ft | 466 kts | 133° |
| 2026-05-07 15:33 | 46.41191 | 4.95541 | 37008 ft | 466 kts | 133° |
| 2026-05-07 15:34 | 46.37093 | 5.02837 | 37015 ft | 467 kts | 133° |
| 2026-05-07 15:34 | 46.32994 | 5.10124 | 37019 ft | 467 kts | 133° |
| 2026-05-07 15:35 | 46.28884 | 5.17402 | 37022 ft | 467 kts | 133° |
| 2026-05-07 15:35 | 46.24793 | 5.24631 | 36999 ft | 467 kts | 133° |
| 2026-05-07 15:36 | 46.20658 | 5.31948 | 37010 ft | 467 kts | 133° |
| 2026-05-07 15:36 | 46.16536 | 5.39211 | 37011 ft | 467 kts | 133° |
| 2026-05-07 15:37 | 46.12433 | 5.46399 | 37016 ft | 467 kts | 133° |
| 2026-05-07 15:37 | 46.08265 | 5.53676 | 37018 ft | 468 kts | 133° |
| 2026-05-07 15:38 | 46.04147 | 5.60856 | 37011 ft | 468 kts | 133° |
| 2026-05-07 15:38 | 45.99997 | 5.68081 | 36997 ft | 468 kts | 134° |
| 2026-05-07 15:39 | 45.95846 | 5.75287 | 37002 ft | 468 kts | 134° |
| 2026-05-07 15:39 | 45.91694 | 5.82485 | 36990 ft | 467 kts | 134° |
| 2026-05-07 15:40 | 45.87533 | 5.89665 | 36993 ft | 468 kts | 134° |
| 2026-05-07 15:40 | 45.83370 | 5.96835 | 36976 ft | 468 kts | 134° |
| 2026-05-07 15:41 | 45.79185 | 6.04021 | 36974 ft | 468 kts | 134° |
| 2026-05-07 15:41 | 45.75004 | 6.11173 | 36990 ft | 468 kts | 134° |
| 2026-05-07 15:42 | 45.70824 | 6.18320 | 36996 ft | 467 kts | 134° |
| 2026-05-07 15:42 | 45.66648 | 6.25444 | 36995 ft | 468 kts | 134° |
| 2026-05-07 15:43 | 45.62488 | 6.32600 | 36993 ft | 468 kts | 134° |
| 2026-05-07 15:43 | 45.58367 | 6.39717 | 36976 ft | 468 kts | 134° |
| 2026-05-07 15:44 | 45.54210 | 6.46858 | 36985 ft | 468 kts | 134° |
| 2026-05-07 15:44 | 45.50047 | 6.53988 | 36994 ft | 468 kts | 134° |
| 2026-05-07 15:45 | 45.45874 | 6.61100 | 36995 ft | 467 kts | 134° |
| 2026-05-07 15:45 | 45.41703 | 6.68189 | 36989 ft | 467 kts | 135° |
| 2026-05-07 15:46 | 45.35435 | 6.78823 | 36989 ft | 466 kts | 135° |
| 2026-05-07 15:47 | 45.31254 | 6.85882 | 36997 ft | 466 kts | 135° |
| 2026-05-07 15:47 | 45.27077 | 6.92905 | 36999 ft | 465 kts | 136° |
| 2026-05-07 15:48 | 45.22551 | 6.99374 | 37001 ft | 462 kts | 141° |
| 2026-05-07 15:48 | 45.17922 | 7.05739 | 37001 ft | 463 kts | 141° |
| 2026-05-07 15:49 | 45.13295 | 7.12086 | 36997 ft | 463 kts | 141° |
| 2026-05-07 15:49 | 45.09042 | 7.18915 | 37009 ft | 471 kts | 130° |
| 2026-05-07 15:50 | 45.05288 | 7.26515 | 37011 ft | 471 kts | 130° |
| 2026-05-07 15:50 | 45.01509 | 7.34129 | 37016 ft | 471 kts | 130° |
| 2026-05-07 15:51 | 44.97756 | 7.41643 | 36987 ft | 471 kts | 130° |
| 2026-05-07 15:51 | 44.94037 | 7.49253 | 36959 ft | 471 kts | 129° |
| 2026-05-07 15:52 | 44.90369 | 7.56917 | 36967 ft | 471 kts | 129° |
| 2026-05-07 15:52 | 44.86697 | 7.64571 | 36969 ft | 471 kts | 129° |
| 2026-05-07 15:53 | 44.82992 | 7.72203 | 36973 ft | 472 kts | 129° |
| 2026-05-07 15:53 | 44.79276 | 7.79825 | 36976 ft | 472 kts | 130° |
| 2026-05-07 15:54 | 44.75556 | 7.87439 | 36973 ft | 472 kts | 130° |
| 2026-05-07 15:54 | 44.71832 | 7.95057 | 36970 ft | 472 kts | 130° |
| 2026-05-07 15:55 | 44.68106 | 8.02651 | 36955 ft | 472 kts | 130° |
| 2026-05-07 15:55 | 44.64366 | 8.10244 | 36966 ft | 473 kts | 130° |
| 2026-05-07 15:56 | 44.60619 | 8.17837 | 36975 ft | 473 kts | 130° |
| 2026-05-07 15:56 | 44.56866 | 8.25421 | 36982 ft | 473 kts | 130° |
| 2026-05-07 15:57 | 44.53131 | 8.32948 | 36990 ft | 473 kts | 130° |
| 2026-05-07 15:57 | 44.49366 | 8.40512 | 36989 ft | 473 kts | 130° |
| 2026-05-07 15:58 | 44.45597 | 8.48072 | 37000 ft | 473 kts | 130° |
| 2026-05-07 15:58 | 44.41830 | 8.55622 | 37008 ft | 473 kts | 130° |
| 2026-05-07 15:59 | 44.38053 | 8.63176 | 37011 ft | 473 kts | 130° |
| 2026-05-07 15:59 | 44.34268 | 8.70703 | 37013 ft | 473 kts | 130° |
| 2026-05-07 16:00 | 44.31114 | 8.76946 | 37000 ft | 473 kts | 131° |
| 2026-05-07 16:00 | 44.27312 | 8.84476 | 37006 ft | 474 kts | 131° |
| 2026-05-07 16:01 | 44.23515 | 8.91998 | 36997 ft | 474 kts | 131° |
| 2026-05-07 16:01 | 44.19707 | 8.99509 | 37008 ft | 474 kts | 131° |
| 2026-05-07 16:02 | 44.15888 | 9.07014 | 37014 ft | 475 kts | 131° |
| 2026-05-07 16:02 | 44.12065 | 9.14502 | 37012 ft | 475 kts | 131° |
| 2026-05-07 16:03 | 44.08229 | 9.21999 | 37015 ft | 476 kts | 131° |
| 2026-05-07 16:03 | 44.04386 | 9.29491 | 37018 ft | 476 kts | 131° |
| 2026-05-07 16:04 | 44.00543 | 9.36977 | 37005 ft | 476 kts | 132° |
| 2026-05-07 16:04 | 43.96715 | 9.44403 | 37015 ft | 476 kts | 132° |
| 2026-05-07 16:05 | 43.92851 | 9.51878 | 37010 ft | 476 kts | 132° |
| 2026-05-07 16:05 | 43.88983 | 9.59343 | 37009 ft | 477 kts | 132° |
| 2026-05-07 16:06 | 43.85109 | 9.66801 | 37017 ft | 477 kts | 132° |
| 2026-05-07 16:06 | 43.81228 | 9.74258 | 37019 ft | 477 kts | 132° |
| 2026-05-07 16:07 | 43.77340 | 9.81703 | 37018 ft | 478 kts | 132° |
| 2026-05-07 16:07 | 43.73444 | 9.89151 | 37005 ft | 478 kts | 133° |
| 2026-05-07 16:08 | 43.69542 | 9.96598 | 37015 ft | 478 kts | 133° |
| 2026-05-07 16:08 | 43.65634 | 10.04033 | 37018 ft | 478 kts | 133° |
| 2026-05-07 16:09 | 43.61718 | 10.11462 | 37018 ft | 478 kts | 133° |
| 2026-05-07 16:09 | 43.57824 | 10.18823 | 37024 ft | 478 kts | 133° |
| 2026-05-07 16:10 | 43.53898 | 10.26219 | 36989 ft | 478 kts | 133° |
| 2026-05-07 16:10 | 43.49958 | 10.33629 | 36999 ft | 480 kts | 133° |
| 2026-05-07 16:11 | 43.46014 | 10.41041 | 37010 ft | 480 kts | 133° |
| 2026-05-07 16:11 | 43.42059 | 10.48459 | 37014 ft | 480 kts | 133° |
| 2026-05-07 16:12 | 43.38096 | 10.55864 | 37019 ft | 481 kts | 133° |
| 2026-05-07 16:12 | 43.34125 | 10.63258 | 37011 ft | 481 kts | 133° |
| 2026-05-07 16:13 | 43.30148 | 10.70656 | 36992 ft | 481 kts | 134° |
| 2026-05-07 16:13 | 43.26167 | 10.78043 | 37001 ft | 481 kts | 134° |
| 2026-05-07 16:14 | 43.22179 | 10.85414 | 37004 ft | 481 kts | 134° |
| 2026-05-07 16:14 | 43.18182 | 10.92782 | 37005 ft | 482 kts | 134° |
| 2026-05-07 16:15 | 43.14182 | 11.00139 | 37001 ft | 481 kts | 134° |
| 2026-05-07 16:15 | 43.10189 | 11.07480 | 36996 ft | 480 kts | 134° |
| 2026-05-07 16:16 | 43.06218 | 11.14839 | 36979 ft | 482 kts | 132° |
| 2026-05-07 16:16 | 43.02506 | 11.22512 | 36996 ft | 485 kts | 129° |
| 2026-05-07 16:17 | 42.98936 | 11.30294 | 36993 ft | 486 kts | 129° |
| 2026-05-07 16:17 | 42.95294 | 11.38075 | 36986 ft | 486 kts | 130° |
| 2026-05-07 16:18 | 42.91580 | 11.45789 | 36997 ft | 486 kts | 130° |
| 2026-05-07 16:18 | 42.87891 | 11.53400 | 36986 ft | 472 kts | 130° |
| 2026-05-07 16:19 | 42.84246 | 11.60923 | 36980 ft | 482 kts | 130° |
| 2026-05-07 16:19 | 42.80498 | 11.68641 | 36975 ft | 494 kts | 130° |
| 2026-05-07 16:20 | 42.76688 | 11.76480 | 36978 ft | 498 kts | 130° |
| 2026-05-07 16:20 | 42.72865 | 11.84355 | 36980 ft | 499 kts | 130° |
| 2026-05-07 16:21 | 42.69032 | 11.92216 | 36977 ft | 499 kts | 130° |
| 2026-05-07 16:21 | 42.65187 | 12.00065 | 36981 ft | 499 kts | 130° |
| 2026-05-07 16:22 | 42.61362 | 12.07866 | 36961 ft | 499 kts | 130° |
| 2026-05-07 16:22 | 42.57506 | 12.15711 | 36935 ft | 500 kts | 131° |
| 2026-05-07 16:23 | 42.53635 | 12.23559 | 36943 ft | 501 kts | 131° |
| 2026-05-07 16:23 | 42.49751 | 12.31416 | 36953 ft | 502 kts | 131° |
| 2026-05-07 16:24 | 42.45847 | 12.39286 | 36961 ft | 503 kts | 131° |
| 2026-05-07 16:24 | 42.41941 | 12.47137 | 36960 ft | 504 kts | 131° |
| 2026-05-07 16:25 | 42.38026 | 12.55006 | 36980 ft | 504 kts | 131° |
| 2026-05-07 16:25 | 42.34103 | 12.62865 | 36995 ft | 504 kts | 131° |
| 2026-05-07 16:26 | 42.31308 | 12.68442 | 36969 ft | 505 kts | 132° |
| 2026-05-07 16:26 | 42.28546 | 12.73948 | 36986 ft | 498 kts | 133° |
| 2026-05-07 16:27 | 42.24777 | 12.81495 | 37000 ft | 474 kts | 133° |
| 2026-05-07 16:27 | 42.21077 | 12.88817 | 36980 ft | 471 kts | 133° |
| 2026-05-07 16:28 | 42.17375 | 12.96107 | 36969 ft | 471 kts | 133° |
| 2026-05-07 16:28 | 42.13685 | 13.03389 | 36968 ft | 471 kts | 133° |
| 2026-05-07 16:29 | 42.09987 | 13.10677 | 36974 ft | 471 kts | 133° |
| 2026-05-07 16:29 | 42.06307 | 13.17909 | 36969 ft | 471 kts | 133° |
| 2026-05-07 16:30 | 42.02605 | 13.25165 | 36981 ft | 470 kts | 133° |
| 2026-05-07 16:30 | 41.98897 | 13.32402 | 36988 ft | 470 kts | 133° |
| 2026-05-07 16:31 | 41.95180 | 13.39647 | 36990 ft | 470 kts | 133° |
| 2026-05-07 16:31 | 41.91461 | 13.46887 | 36989 ft | 472 kts | 133° |
| 2026-05-07 16:31 | 41.89577 | 13.50546 | 36193 ft | 483 kts | 133° |
| 2026-05-07 16:32 | 41.87618 | 13.54317 | 34896 ft | 500 kts | 133° |
| 2026-05-07 16:32 | 41.85597 | 13.58202 | 33582 ft | 514 kts | 132° |
| 2026-05-07 16:32 | 41.83549 | 13.62164 | 32536 ft | 517 kts | 131° |
| 2026-05-07 16:32 | 41.81511 | 13.66134 | 31682 ft | 515 kts | 131° |
| 2026-05-07 16:33 | 41.79485 | 13.70084 | 30787 ft | 513 kts | 131° |
| 2026-05-07 16:33 | 41.77465 | 13.74004 | 30052 ft | 509 kts | 131° |
| 2026-05-07 16:33 | 41.75459 | 13.77878 | 29361 ft | 503 kts | 131° |
| 2026-05-07 16:33 | 41.73472 | 13.81700 | 28660 ft | 497 kts | 131° |
| 2026-05-07 16:34 | 41.71504 | 13.85476 | 28010 ft | 492 kts | 131° |
| 2026-05-07 16:34 | 41.69559 | 13.89199 | 27378 ft | 484 kts | 130° |
| 2026-05-07 16:34 | 41.67650 | 13.92857 | 26333 ft | 475 kts | 130° |
| 2026-05-07 16:34 | 41.65769 | 13.96454 | 25301 ft | 468 kts | 129° |
| 2026-05-07 16:35 | 41.63917 | 13.99988 | 24306 ft | 461 kts | 129° |
| 2026-05-07 16:35 | 41.62107 | 14.03412 | 23261 ft | 452 kts | 130° |
| 2026-05-07 16:35 | 41.60223 | 14.06724 | 22291 ft | 441 kts | 132° |
| 2026-05-07 16:35 | 41.58326 | 14.09816 | 21986 ft | 418 kts | 134° |
| 2026-05-07 16:36 | 41.56490 | 14.12698 | 21698 ft | 395 kts | 135° |
| 2026-05-07 16:36 | 41.54753 | 14.15393 | 21569 ft | 371 kts | 135° |
| 2026-05-07 16:36 | 41.53104 | 14.17961 | 21199 ft | 358 kts | 135° |
| 2026-05-07 16:36 | 41.51503 | 14.20465 | 20672 ft | 351 kts | 135° |
| 2026-05-07 16:37 | 41.49934 | 14.22933 | 20116 ft | 346 kts | 134° |
| 2026-05-07 16:37 | 41.48389 | 14.25385 | 19767 ft | 343 kts | 134° |
| 2026-05-07 16:37 | 41.46866 | 14.27818 | 19472 ft | 340 kts | 134° |
| 2026-05-07 16:37 | 41.45358 | 14.30239 | 19187 ft | 338 kts | 134° |
| 2026-05-07 16:38 | 41.43863 | 14.32639 | 18893 ft | 335 kts | 134° |
| 2026-05-07 16:38 | 41.42377 | 14.35018 | 18597 ft | 332 kts | 134° |
| 2026-05-07 16:38 | 41.40914 | 14.37354 | 18448 ft | 324 kts | 134° |
| 2026-05-07 16:38 | 41.39490 | 14.39629 | 18330 ft | 315 kts | 134° |
| 2026-05-07 16:39 | 41.38104 | 14.41839 | 18193 ft | 307 kts | 134° |
| 2026-05-07 16:39 | 41.36744 | 14.44001 | 17945 ft | 303 kts | 135° |
| 2026-05-07 16:39 | 41.35395 | 14.46140 | 17672 ft | 300 kts | 135° |
| 2026-05-07 16:39 | 41.34026 | 14.48302 | 16930 ft | 313 kts | 134° |
| 2026-05-07 16:40 | 41.32609 | 14.50533 | 16508 ft | 310 kts | 134° |
| 2026-05-07 16:40 | 41.31263 | 14.52671 | 16271 ft | 295 kts | 135° |
| 2026-05-07 16:40 | 41.29960 | 14.54744 | 15826 ft | 289 kts | 134° |
| 2026-05-07 16:40 | 41.28677 | 14.56781 | 15363 ft | 286 kts | 134° |
| 2026-05-07 16:41 | 41.27405 | 14.58797 | 14905 ft | 283 kts | 135° |
| 2026-05-07 16:41 | 41.26145 | 14.60786 | 14421 ft | 280 kts | 134° |
| 2026-05-07 16:41 | 41.24897 | 14.62750 | 14002 ft | 275 kts | 134° |
| 2026-05-07 16:41 | 41.23689 | 14.64656 | 13551 ft | 272 kts | 134° |
| 2026-05-07 16:42 | 41.22475 | 14.66576 | 13145 ft | 271 kts | 134° |
| 2026-05-07 16:42 | 41.21269 | 14.68479 | 12882 ft | 268 kts | 134° |
| 2026-05-07 16:42 | 41.20069 | 14.70369 | 12599 ft | 267 kts | 134° |
| 2026-05-07 16:42 | 41.18878 | 14.72244 | 12315 ft | 265 kts | 133° |
| 2026-05-07 16:43 | 41.17687 | 14.74118 | 12025 ft | 264 kts | 133° |
| 2026-05-07 16:43 | 41.16403 | 14.75824 | 11736 ft | 259 kts | 148° |
| 2026-05-07 16:43 | 41.14807 | 14.76809 | 11383 ft | 251 kts | 169° |
| 2026-05-07 16:43 | 41.13085 | 14.76949 | 10871 ft | 247 kts | 189° |
| 2026-05-07 16:44 | 41.11464 | 14.76258 | 10371 ft | 246 kts | 209° |
| 2026-05-07 16:44 | 41.10133 | 14.74854 | 9855 ft | 246 kts | 229° |
| 2026-05-07 16:44 | 41.09179 | 14.72970 | 9295 ft | 247 kts | 236° |
| 2026-05-07 16:44 | 41.08255 | 14.71046 | 8770 ft | 247 kts | 236° |
| 2026-05-07 16:45 | 41.07652 | 14.69768 | 8426 ft | 247 kts | 237° |
| 2026-05-07 16:45 | 41.06752 | 14.67839 | 7928 ft | 246 kts | 237° |
| 2026-05-07 16:45 | 41.05856 | 14.65912 | 7433 ft | 245 kts | 237° |
| 2026-05-07 16:45 | 41.04958 | 14.63983 | 6938 ft | 245 kts | 237° |
| 2026-05-07 16:46 | 41.04062 | 14.62062 | 6451 ft | 245 kts | 237° |
| 2026-05-07 16:46 | 41.03168 | 14.60144 | 5936 ft | 244 kts | 237° |
| 2026-05-07 16:46 | 41.02275 | 14.58231 | 5481 ft | 241 kts | 237° |
| 2026-05-07 16:46 | 41.01410 | 14.56377 | 5161 ft | 234 kts | 237° |
| 2026-05-07 16:47 | 41.00564 | 14.54567 | 4827 ft | 228 kts | 237° |
| 2026-05-07 16:47 | 40.99740 | 14.52804 | 4501 ft | 222 kts | 237° |
| 2026-05-07 16:47 | 40.98934 | 14.51082 | 4191 ft | 215 kts | 237° |
| 2026-05-07 16:47 | 40.98175 | 14.49459 | 3884 ft | 206 kts | 238° |
| 2026-05-07 16:48 | 40.97414 | 14.47835 | 3570 ft | 204 kts | 238° |
| 2026-05-07 16:48 | 40.96681 | 14.46270 | 3284 ft | 201 kts | 239° |
| 2026-05-07 16:48 | 40.95944 | 14.44699 | 2997 ft | 199 kts | 239° |
| 2026-05-07 16:48 | 40.95217 | 14.43149 | 2703 ft | 198 kts | 239° |
| 2026-05-07 16:49 | 40.94495 | 14.41609 | 2416 ft | 195 kts | 239° |
| 2026-05-07 16:49 | 40.93793 | 14.40115 | 2136 ft | 186 kts | 239° |
| 2026-05-07 16:49 | 40.93130 | 14.38703 | 1875 ft | 176 kts | 240° |
| 2026-05-07 16:49 | 40.92493 | 14.37347 | 1632 ft | 170 kts | 240° |
| 2026-05-07 16:50 | 40.91884 | 14.36054 | 1388 ft | 160 kts | 240° |
| 2026-05-07 16:50 | 40.91321 | 14.34856 | 1172 ft | 150 kts | 240° |
| 2026-05-07 16:50 | 40.90778 | 14.33702 | 948 ft | 146 kts | 240° |
| 2026-05-07 16:50 | 40.90246 | 14.32571 | 733 ft | 145 kts | 239° |
| 2026-05-07 16:51 | 40.89715 | 14.31442 | 510 ft | 144 kts | 239° |
| 2026-05-07 16:51 | 40.89190 | 14.30318 | 295 ft | 144 kts | 240° |
| 2026-05-07 16:51 | 40.88682 | 14.29232 | 263 ft | 127 kts | 238° |
| 2026-05-07 16:51 | 40.88338 | 14.28511 | 280 ft | 57 kts | 238° |
| 2026-05-07 16:52 | 40.88195 | 14.28208 | 287 ft | 28 kts | 237° |
| 2026-05-07 16:52 | 40.88097 | 14.28005 | 292 ft | 26 kts | 238° |
| 2026-05-07 16:52 | 40.88023 | 14.27847 | 298 ft | 13 kts | 238° |
| 2026-05-07 16:52 | 40.87953 | 14.27796 | 301 ft | 13 kts | 162° |
| 2026-05-07 16:53 | 40.87879 | 14.27870 | 300 ft | 12 kts | 140° |
| 2026-05-07 16:53 | 40.87839 | 14.27911 | 300 ft | 6 kts | 146° |
| 2026-05-07 16:53 | 40.87807 | 14.27924 | 300 ft | 2 kts | 172° |
| 2026-05-07 16:53 | 40.87788 | 14.27928 | 301 ft | 3 kts | 172° |
| 2026-05-07 16:54 | 40.87772 | 14.27914 | 299 ft | 3 kts | 231° |
| 2026-05-07 16:54 | 40.87767 | 14.27887 | 300 ft | 3 kts | 264° |
| 2026-05-07 16:54 | 40.87765 | 14.27856 | 300 ft | 2 kts | 262° |
| 2026-05-07 16:54 | 40.87764 | 14.27847 | 300 ft | 0 kts | 263° |